Upper Allen, Pennsylvania
Current Conditions -  °F | °C
As of 3:56 AM on Thursday 27 Nov 2014 (Local Time) from KCXY Reporting Station
Overcast Overcast  
Wind Chill: 34°   Ceiling: 7000
Heat Index: 34°   Visibility: 10mi
Dew Point: 29°   Wind: 3mph
Humidity: 82%   Direction: 300°WNW
Pressure: 29.99"   Gusts: NA
Location:  40.208°N, 77.0098°W
Report Text: KCXY 270856Z AUTO 30003KT 10SM OVC070 01/M02 A2999 RMK AO2 SLP160 T00111017 50005
Loading
Personal Weather Stations






























Interactive Weather Map New forecast layout! Learn more

10-Day Weather Forecast

Advertisements
Track Severe Weather on mobile